Time;durP1;ratioP1;P1;durP2;ratioP2;P2;SDS_P1;SDS_P2;PMS_P1;PMS_P2;Temp;Humidity;BMP_temperature;BMP_pressure;BME280_temperature;BME280_humidity;BME280_pressure;Samples;Min_cycle;Max_cycle;Signal;HPM_P1;HPM_P2
2023/11/23 00:01:44;;;;;;;18.00;11.17;;;;;;;-2.08;100.00;101229.04;1472947;88;21962;-83
2023/11/23 00:04:10;;;;;;;18.40;11.83;;;;;;;-2.03;100.00;101234.10;1460218;88;21715;-83
2023/11/23 00:06:36;;;;;;;21.30;13.03;;;;;;;-2.03;100.00;101246.62;1460815;88;21381;-85
2023/11/23 00:09:05;;;;;;;25.35;12.45;;;;;;;-2.03;100.00;101249.66;1467642;88;22241;-83
2023/11/23 00:11:30;;;;;;;21.20;12.05;;;;;;;-2.01;100.00;101242.66;1475737;88;21470;-84
2023/11/23 00:13:57;;;;;;;21.55;11.73;;;;;;;-2.00;100.00;101246.97;1477757;88;21604;-85
2023/11/23 00:16:23;;;;;;;18.48;10.13;;;;;;;-2.00;100.00;101245.68;1482417;88;21523;-83
2023/11/23 00:18:49;;;;;;;20.77;12.00;;;;;;;-2.02;100.00;101245.71;1482416;88;21654;-83
2023/11/23 00:21:15;;;;;;;20.77;10.85;;;;;;;-2.05;100.00;101236.73;1476387;88;22419;-86
2023/11/23 00:23:42;;;;;;;23.10;12.53;;;;;;;-2.04;100.00;101243.63;1474424;88;21670;-84
2023/11/23 00:26:09;;;;;;;16.43;11.03;;;;;;;-2.04;100.00;101239.74;1482116;88;22990;-86
2023/11/23 00:28:35;;;;;;;24.12;11.00;;;;;;;-2.08;100.00;101236.38;1477057;88;21612;-83
2023/11/23 00:31:01;;;;;;;17.87;11.60;;;;;;;-2.09;100.00;101235.14;1476308;88;22357;-84
2023/11/23 00:33:28;;;;;;;23.45;13.20;;;;;;;-2.16;100.00;101229.72;1457986;88;21628;-85
2023/11/23 00:35:54;;;;;;;20.17;11.65;;;;;;;-2.20;100.00;101221.19;1479459;88;21522;-84
2023/11/23 00:38:21;;;;;;;21.50;13.83;;;;;;;-2.20;100.00;101224.23;1480723;88;21500;-81
2023/11/23 00:40:47;;;;;;;22.45;12.58;;;;;;;-2.19;100.00;101227.22;1478456;88;21477;-80
2023/11/23 00:43:13;;;;;;;23.25;11.70;;;;;;;-2.21;100.00;101213.48;1476015;88;21702;-82
2023/11/23 00:45:40;;;;;;;20.45;12.33;;;;;;;-2.24;100.00;101200.58;1484145;88;21599;-82
2023/11/23 00:48:06;;;;;;;23.92;14.00;;;;;;;-2.27;100.00;101204.98;1460123;88;21441;-84
2023/11/23 00:50:32;;;;;;;20.97;12.30;;;;;;;-2.27;100.00;101203.69;1482607;88;21618;-83
2023/11/23 00:52:59;;;;;;;20.23;12.53;;;;;;;-2.25;100.00;101202.78;1475947;88;21669;-85
2023/11/23 00:55:26;;;;;;;27.00;14.93;;;;;;;-2.22;100.00;101207.87;1476911;88;21440;-86
2023/11/23 00:57:52;;;;;;;22.58;14.50;;;;;;;-2.21;100.00;101213.48;1476735;88;21639;-83
2023/11/23 01:00:19;;;;;;;22.10;13.78;;;;;;;-2.18;100.00;101215.97;1455390;88;22328;-82
2023/11/23 01:02:46;;;;;;;20.25;13.25;;;;;;;-2.16;100.00;101211.56;1478937;88;21499;-85
2023/11/23 01:05:15;;;;;;;22.13;14.07;;;;;;;-2.13;100.00;101211.47;1488888;88;21598;-84
2023/11/23 01:07:42;;;;;;;24.57;13.32;;;;;;;-2.13;100.00;101209.75;1484707;88;22335;-84
2023/11/23 01:10:10;;;;;;;23.77;13.75;;;;;;;-2.13;100.00;101217.95;1481776;88;21625;-85
2023/11/23 01:12:36;;;;;;;23.32;13.30;;;;;;;-2.13;100.00;101220.55;1475720;88;21440;-86
2023/11/23 01:15:03;;;;;;;22.07;13.60;;;;;;;-2.12;100.00;101224.86;1456519;88;21455;-83
2023/11/23 01:17:29;;;;;;;20.65;13.62;;;;;;;-2.13;100.00;101232.22;1478645;88;21604;-85
2023/11/23 01:19:55;;;;;;;22.20;13.03;;;;;;;-2.17;100.00;101219.80;1479233;88;21464;-84
2023/11/23 01:22:21;;;;;;;21.42;13.35;;;;;;;-2.21;100.00;101209.59;1454799;88;21456;-84
2023/11/23 01:24:48;;;;;;;24.27;14.33;;;;;;;-2.21;100.00;101214.77;1465082;88;21530;-85
2023/11/23 01:27:14;;;;;;;23.32;14.35;;;;;;;-2.20;100.00;101211.27;1472984;88;21538;-84
2023/11/23 01:29:40;;;;;;;19.85;12.78;;;;;;;-2.19;100.00;101221.58;1466586;88;21596;-84
2023/11/23 01:32:08;;;;;;;18.92;11.97;;;;;;;-2.18;100.00;101225.05;1472783;88;21471;-82
2023/11/23 01:34:34;;;;;;;22.30;12.82;;;;;;;-2.17;100.00;101218.50;1474422;88;21412;-83
2023/11/23 01:37:00;;;;;;;23.42;14.23;;;;;;;-2.17;100.00;101220.25;1472104;88;21520;-84
2023/11/23 01:39:27;;;;;;;25.10;14.45;;;;;;;-2.18;100.00;101222.45;1475289;88;21670;-83
2023/11/23 01:41:53;;;;;;;24.43;14.58;;;;;;;-2.22;100.00;101222.12;1456890;88;21596;-84
2023/11/23 01:44:20;;;;;;;31.20;15.75;;;;;;;-2.25;100.00;101213.16;1458161;88;22313;-85
2023/11/23 01:46:46;;;;;;;28.07;16.17;;;;;;;-2.28;100.00;101212.34;1464424;88;21500;-84
2023/11/23 01:49:14;;;;;;;29.80;16.48;;;;;;;-2.31;100.00;101204.66;1474115;88;21590;-84
2023/11/23 01:51:41;;;;;;;28.52;15.70;;;;;;;-2.32;100.00;101209.45;1477706;88;22432;-83
2023/11/23 01:54:07;;;;;;;24.87;14.95;;;;;;;-2.31;100.00;101221.51;1470232;88;21641;-83
2023/11/23 01:56:34;;;;;;;24.60;13.75;;;;;;;-2.35;100.00;101219.92;1476756;88;21492;-83
2023/11/23 01:59:00;;;;;;;27.82;14.90;;;;;;;-2.34;100.00;101208.64;1466701;88;23127;-84
2023/11/23 02:01:26;;;;;;;24.15;15.13;;;;;;;-2.34;100.00;101209.94;1456584;88;22424;-83
2023/11/23 02:03:53;;;;;;;24.85;13.98;;;;;;;-2.37;100.00;101215.22;1457544;88;21560;-83
2023/11/23 02:06:19;;;;;;;24.55;14.58;;;;;;;-2.42;100.00;101211.06;1474073;88;21449;-83
2023/11/23 02:08:48;;;;;;;26.07;15.55;;;;;;;-2.48;100.00;101206.91;1488835;88;21670;-83
2023/11/23 02:11:14;;;;;;;22.80;14.43;;;;;;;-2.49;100.00;101206.52;1488605;88;21471;-84
2023/11/23 02:13:43;;;;;;;22.10;14.03;;;;;;;-2.50;100.00;101208.72;1433261;88;21597;-85
2023/11/23 02:16:10;;;;;;;27.45;15.08;;;;;;;-2.50;100.00;101203.53;1479034;88;22608;-84
2023/11/23 02:18:40;;;;;;;27.10;15.15;;;;;;;-2.51;100.00;101203.11;1459620;88;21390;-84
2023/11/23 02:21:07;;;;;;;24.10;14.03;;;;;;;-2.51;100.00;101194.04;1469121;88;21648;-85
2023/11/23 02:23:34;;;;;;;30.48;14.53;;;;;;;-2.52;100.00;101192.35;1468224;88;21672;-84
2023/11/23 02:26:01;;;;;;;27.27;16.62;;;;;;;-2.52;100.00;101194.95;1424733;90;21560;-84
2023/11/23 02:28:30;;;;;;;23.98;14.45;;;;;;;-2.52;100.00;101199.67;1456737;90;21421;-84
2023/11/23 02:30:57;;;;;;;22.00;14.58;;;;;;;-2.52;100.00;101196.23;1450720;90;21471;-84
2023/11/23 02:33:23;;;;;;;22.35;14.55;;;;;;;-2.54;100.00;101198.86;1455969;90;21634;-85
2023/11/23 02:35:49;;;;;;;24.70;15.25;;;;;;;-2.53;100.00;101207.52;1429810;90;21655;-84
2023/11/23 02:38:15;;;;;;;31.97;16.35;;;;;;;-2.53;100.00;101200.58;1450350;90;22314;-83
2023/11/23 02:40:42;;;;;;;23.92;14.55;;;;;;;-2.56;100.00;101198.08;1455520;89;21508;-84
2023/11/23 02:43:08;;;;;;;30.50;16.60;;;;;;;-2.54;100.00;101194.97;1454749;89;21413;-84
2023/11/23 02:45:34;;;;;;;27.60;16.37;;;;;;;-2.52;100.00;101189.77;1458304;90;21478;-85
2023/11/23 02:48:02;;;;;;;26.30;16.07;;;;;;;-2.49;100.00;101183.19;1452014;90;21597;-85
2023/11/23 02:50:28;;;;;;;30.25;16.77;;;;;;;-2.45;100.00;101179.59;1449845;90;21448;-83
2023/11/23 02:52:55;;;;;;;30.85;18.67;;;;;;;-2.43;100.00;101173.92;1456869;89;22343;-83
2023/11/23 02:55:21;;;;;;;32.17;17.50;;;;;;;-2.39;100.00;101185.04;1438887;90;21360;-82
2023/11/23 02:57:47;;;;;;;28.80;16.70;;;;;;;-2.39;100.00;101191.07;1455043;90;22261;-83
2023/11/23 03:00:14;;;;;;;29.70;17.10;;;;;;;-2.38;100.00;101199.27;1464108;90;21464;-84
2023/11/23 03:02:40;;;;;;;32.10;18.23;;;;;;;-2.35;100.00;101197.03;1452479;90;21501;-84
2023/11/23 03:05:10;;;;;;;27.85;17.48;;;;;;;-2.35;100.00;101197.88;1454708;89;21553;-83
2023/11/23 03:07:35;;;;;;;31.73;18.20;;;;;;;-2.40;100.00;101194.57;1450638;90;21538;-81
2023/11/23 03:10:01;;;;;;;31.30;17.98;;;;;;;-2.47;100.00;101190.90;1433844;90;22365;-83
2023/11/23 03:12:28;;;;;;;27.07;16.67;;;;;;;-2.49;100.00;101193.55;1448450;90;21530;-84
2023/11/23 03:14:57;;;;;;;25.57;15.98;;;;;;;-2.51;100.00;101183.67;1462124;90;22576;-82
2023/11/23 03:17:23;;;;;;;29.02;17.50;;;;;;;-2.54;100.00;101176.83;1448963;90;21390;-83
2023/11/23 03:19:49;;;;;;;27.10;15.90;;;;;;;-2.56;100.00;101172.58;1456820;90;22255;-83
2023/11/23 03:22:15;;;;;;;25.62;15.65;;;;;;;-2.58;100.00;101170.51;1456780;90;21287;-82
2023/11/23 03:24:42;;;;;;;26.37;14.43;;;;;;;-2.60;100.00;101187.84;1474378;88;21434;-82
2023/11/23 03:27:09;;;;;;;27.07;16.42;;;;;;;-2.62;100.00;101184.43;1471298;88;21456;-82
2023/11/23 03:29:35;;;;;;;26.55;16.62;;;;;;;-2.63;100.00;101180.16;1474795;88;21286;-83
2023/11/23 03:32:02;;;;;;;28.73;14.95;;;;;;;-2.61;100.00;101180.52;1463773;88;22283;-82
2023/11/23 03:34:28;;;;;;;28.90;14.87;;;;;;;-2.57;100.00;101178.67;1468692;88;22166;-83
2023/11/23 03:36:55;;;;;;;23.00;13.48;;;;;;;-2.56;100.00;101182.95;1475289;88;21611;-84
2023/11/23 03:39:21;;;;;;;22.50;14.30;;;;;;;-2.54;100.00;101163.88;1460755;88;21427;-83
2023/11/23 03:41:47;;;;;;;24.27;14.65;;;;;;;-2.53;100.00;101159.56;1470591;88;21368;-83
2023/11/23 03:44:14;;;;;;;25.20;15.03;;;;;;;-2.55;100.00;101156.16;1469614;88;21515;-82
2023/11/23 03:46:40;;;;;;;53.20;18.17;;;;;;;-2.56;100.00;101154.44;1470291;88;21360;-81
2023/11/23 03:49:07;;;;;;;24.35;15.32;;;;;;;-2.60;100.00;101155.44;1473564;88;22665;-83
2023/11/23 03:51:33;;;;;;;26.17;14.85;;;;;;;-2.60;100.00;101160.17;1476481;88;21388;-83
2023/11/23 03:54:02;;;;;;;23.35;13.43;;;;;;;-2.57;100.00;101160.53;1468760;88;21449;-82
2023/11/23 03:56:28;;;;;;;25.10;15.48;;;;;;;-2.57;100.00;101163.13;1471296;88;21441;-83
2023/11/23 03:58:54;;;;;;;23.90;14.43;;;;;;;-2.58;100.00;101162.73;1473808;88;21530;-82
2023/11/23 04:01:21;;;;;;;24.87;14.43;;;;;;;-2.57;100.00;101164.42;1458968;88;21390;-82
2023/11/23 04:03:48;;;;;;;26.52;14.58;;;;;;;-2.55;100.00;101162.64;1478963;88;21455;-83
2023/11/23 04:06:14;;;;;;;26.90;14.70;;;;;;;-2.51;100.00;101153.86;1469733;88;21360;-81
2023/11/23 04:08:42;;;;;;;25.02;15.28;;;;;;;-2.47;100.00;101142.94;1478052;88;21537;-83
2023/11/23 04:11:10;;;;;;;28.38;16.02;;;;;;;-2.40;100.00;101144.47;1468777;88;21448;-87
2023/11/23 04:13:36;;;;;;;26.95;15.18;;;;;;;-2.35;100.00;101147.32;1455677;88;21485;-85
2023/11/23 04:16:03;;;;;;;25.70;15.28;;;;;;;-2.31;100.00;101150.66;1456608;88;22416;-88
2023/11/23 04:18:29;;;;;;;30.12;16.23;;;;;;;-2.25;100.00;101157.39;1468325;88;21530;-85
2023/11/23 04:20:55;;;;;;;23.77;14.23;;;;;;;-2.17;100.00;101161.90;1466718;88;21442;-84
2023/11/23 04:23:22;;;;;;;28.83;16.70;;;;;;;-2.11;100.00;101162.55;1459614;88;21419;-84
2023/11/23 04:25:48;;;;;;;28.43;16.47;;;;;;;-2.06;100.00;101166.30;1446974;90;21929;-84
2023/11/23 04:28:14;;;;;;;24.47;14.87;;;;;;;-1.99;100.00;101178.16;1427322;90;21953;-84
2023/11/23 04:30:40;;;;;;;24.27;14.98;;;;;;;-1.94;100.00;101175.44;1432669;90;22683;-84
2023/11/23 04:33:06;;;;;;;24.70;14.37;;;;;;;-1.88;100.00;101174.77;1454978;89;21376;-82
2023/11/23 04:35:32;;;;;;;25.20;15.85;;;;;;;-1.83;100.00;101171.59;1435267;90;21991;-83
2023/11/23 04:37:58;;;;;;;30.12;16.55;;;;;;;-1.77;100.00;101182.22;1444548;90;22835;-83
2023/11/23 04:40:24;;;;;;;26.85;14.78;;;;;;;-1.74;100.00;101179.52;1462274;90;22290;-84
2023/11/23 04:42:51;;;;;;;27.33;16.07;;;;;;;-1.72;100.00;101176.88;1449176;90;21302;-84
2023/11/23 04:45:17;;;;;;;26.62;16.23;;;;;;;-1.72;100.00;101179.48;1450487;90;21881;-84
2023/11/23 04:47:43;;;;;;;29.90;18.70;;;;;;;-1.71;100.00;101173.38;1448104;90;22226;-86
2023/11/23 04:50:10;;;;;;;82.13;48.60;;;;;;;-1.70;100.00;101175.06;1431806;90;21502;-83
2023/11/23 04:52:36;;;;;;;74.80;46.00;;;;;;;-1.69;100.00;101176.78;1434580;90;22334;-86
2023/11/23 04:55:04;;;;;;;54.60;35.77;;;;;;;-1.66;100.00;101176.67;1457168;90;21600;-82
2023/11/23 04:57:31;;;;;;;45.07;28.57;;;;;;;-1.61;100.00;101174.78;1456815;89;21599;-81
2023/11/23 04:59:58;;;;;;;43.80;27.40;;;;;;;-1.60;100.00;101169.52;1454666;90;21584;-82
2023/11/23 05:02:24;;;;;;;47.40;31.73;;;;;;;-1.55;100.00;101171.09;1447599;90;22333;-81
2023/11/23 05:04:50;;;;;;;40.63;26.47;;;;;;;-1.54;100.00;101168.47;1428734;90;21610;-82
2023/11/23 05:07:16;;;;;;;33.20;22.30;;;;;;;-1.48;100.00;101172.60;1455520;89;21562;-81
2023/11/23 05:09:43;;;;;;;26.60;18.10;;;;;;;-1.47;100.00;101169.94;1425175;90;21646;-80
2023/11/23 05:12:10;;;;;;;30.13;19.30;;;;;;;-1.44;100.00;101168.56;1448866;89;21500;-80
2023/11/23 05:14:37;;;;;;;30.33;19.43;;;;;;;-1.44;100.00;101164.67;1456941;89;21740;-79
2023/11/23 05:17:03;;;;;;;24.03;15.67;;;;;;;-1.44;100.00;101168.56;1455139;90;21562;-80
2023/11/23 05:19:29;;;;;;;29.13;17.20;;;;;;;-1.43;100.00;101170.70;1458546;90;21540;-80
2023/11/23 05:21:56;;;;;;;29.03;16.53;;;;;;;-1.41;100.00;101164.56;1454004;90;21606;-80
2023/11/23 05:24:24;;;;;;;42.27;23.97;;;;;;;-1.42;100.00;101158.11;1458838;88;21791;-80
2023/11/23 05:26:51;;;;;;;29.10;17.80;;;;;;;-1.43;100.00;101153.83;1453222;89;22593;-81
2023/11/23 05:29:17;;;;;;;30.23;17.07;;;;;;;-1.42;100.00;101148.56;1448618;90;21665;-79
2023/11/23 05:31:43;;;;;;;31.10;18.80;;;;;;;-1.41;100.00;101151.58;1425921;90;21796;-79
2023/11/23 05:34:09;;;;;;;31.93;17.17;;;;;;;-1.40;100.00;101154.56;1448757;89;21346;-79
2023/11/23 05:36:35;;;;;;;26.47;17.03;;;;;;;-1.40;100.00;101153.27;1452634;90;21735;-80
2023/11/23 05:39:01;;;;;;;38.23;22.97;;;;;;;-1.39;100.00;101147.16;1431966;90;22595;-80
2023/11/23 05:41:27;;;;;;;60.93;37.77;;;;;;;-1.41;100.00;101146.38;1434017;90;21647;-79
2023/11/23 05:43:53;;;;;;;55.47;30.97;;;;;;;-1.40;100.00;101148.06;1453269;90;21733;-79
2023/11/23 05:46:19;;;;;;;40.80;24.80;;;;;;;-1.39;100.00;101152.34;1456002;89;21668;-80
2023/11/23 05:48:45;;;;;;;35.13;21.47;;;;;;;-1.36;100.00;101166.98;1459385;90;21607;-80
2023/11/23 05:51:11;;;;;;;32.77;20.87;;;;;;;-1.36;100.00;101161.78;1451206;90;21741;-80
2023/11/23 05:53:37;;;;;;;32.33;20.63;;;;;;;-1.35;100.00;101158.31;1452221;90;21680;-80
2023/11/23 05:56:04;;;;;;;32.73;18.47;;;;;;;-1.34;100.00;101165.19;1451179;89;21629;-80
2023/11/23 05:58:31;;;;;;;28.20;18.30;;;;;;;-1.32;100.00;101167.70;1445202;90;21653;-81
2023/11/23 06:00:57;;;;;;;38.90;20.17;;;;;;;-1.31;100.00;101169.42;1457124;90;21450;-80
2023/11/23 06:03:23;;;;;;;29.20;17.37;;;;;;;-1.28;100.00;101178.41;1454238;90;21362;-80
2023/11/23 06:05:49;;;;;;;31.63;19.87;;;;;;;-1.28;100.00;101180.55;1431067;90;22769;-80
2023/11/23 06:08:15;;;;;;;34.83;21.43;;;;;;;-1.26;100.00;101178.75;1413584;90;22598;-80
2023/11/23 06:10:42;;;;;;;31.07;18.43;;;;;;;-1.27;100.00;101173.14;1453368;90;21594;-80
2023/11/23 06:13:10;;;;;;;30.73;18.10;;;;;;;-1.26;100.00;101173.56;1456751;90;22590;-80
2023/11/23 06:15:36;;;;;;;24.67;16.63;;;;;;;-1.27;100.00;101177.04;1444883;90;21650;-80
2023/11/23 06:18:03;;;;;;;28.27;18.03;;;;;;;-1.28;100.00;101179.70;1446825;90;21607;-80
2023/11/23 06:20:30;;;;;;;35.13;21.50;;;;;;;-1.25;100.00;101180.89;1454912;89;21603;-80
2023/11/23 06:22:56;;;;;;;32.90;18.13;;;;;;;-1.24;100.00;101171.73;1446222;90;21860;-80
2023/11/23 06:25:22;;;;;;;37.10;22.27;;;;;;;-1.24;100.00;101163.10;1457852;88;21703;-84
2023/11/23 06:27:48;;;;;;;58.43;27.87;;;;;;;-1.23;100.00;101160.47;1455146;89;21637;-80
2023/11/23 06:30:15;;;;;;;51.27;27.47;;;;;;;-1.21;100.00;101157.80;1435837;90;21546;-79
2023/11/23 06:32:41;;;;;;;32.83;19.33;;;;;;;-1.18;100.00;101160.28;1448303;89;22057;-80
2023/11/23 06:35:09;;;;;;;41.43;21.47;;;;;;;-1.16;100.00;101156.73;1447503;89;21893;-79
2023/11/23 06:37:36;;;;;;;35.90;18.87;;;;;;;-1.14;100.00;101150.19;1455302;89;22397;-80
2023/11/23 06:40:03;;;;;;;27.53;16.17;;;;;;;-1.12;100.00;101148.40;1451428;90;22665;-80
2023/11/23 06:42:29;;;;;;;33.23;18.60;;;;;;;-1.14;100.00;101140.64;1449846;90;21645;-81
2023/11/23 06:44:56;;;;;;;28.63;16.67;;;;;;;-1.12;100.00;101127.62;1454917;90;22442;-80
2023/11/23 06:47:22;;;;;;;26.73;17.70;;;;;;;-1.11;100.00;101120.66;1446882;89;21634;-80
2023/11/23 06:49:49;;;;;;;27.27;16.20;;;;;;;-1.10;100.00;101127.08;1462496;90;21644;-80
2023/11/23 06:52:15;;;;;;;33.43;16.97;;;;;;;-1.09;100.00;101127.92;1453368;90;21712;-80
2023/11/23 06:54:41;;;;;;;25.40;17.07;;;;;;;-1.10;100.00;101128.38;1455684;90;21596;-80
2023/11/23 06:57:08;;;;;;;27.87;17.77;;;;;;;-1.09;100.00;101130.09;1447877;89;21652;-79
2023/11/23 06:59:35;;;;;;;29.67;17.23;;;;;;;-1.10;100.00;101129.69;1460067;89;21648;-80
2023/11/23 07:02:04;;;;;;;29.57;17.97;;;;;;;-1.09;100.00;101137.89;1433559;90;21584;-80
2023/11/23 07:04:32;;;;;;;25.40;16.13;;;;;;;-1.06;100.00;101139.08;1455023;90;21745;-80
2023/11/23 07:06:58;;;;;;;31.60;16.60;;;;;;;-1.03;100.00;101141.56;1454077;89;21798;-80
2023/11/23 07:09:24;;;;;;;30.50;17.57;;;;;;;-1.04;100.00;101150.23;1434223;90;22404;-79
2023/11/23 07:11:54;;;;;;;26.73;17.50;;;;;;;-1.04;100.00;101139.84;1455503;90;21640;-80
2023/11/23 07:14:19;;;;;;;27.40;16.63;;;;;;;-1.00;100.00;101141.45;1453065;90;21449;-80
2023/11/23 07:16:46;;;;;;;36.23;21.63;;;;;;;-0.99;100.00;101127.54;1459093;90;21811;-80
2023/11/23 07:19:12;;;;;;;37.30;20.07;;;;;;;-0.92;100.00;101134.22;1459456;89;21684;-79
2023/11/23 07:21:39;;;;;;;42.47;23.27;;;;;;;-0.90;100.00;101134.14;1458421;90;22480;-80
2023/11/23 07:24:06;;;;;;;35.93;21.43;;;;;;;-0.87;100.00;101129.29;1445208;90;21668;-80
2023/11/23 07:26:33;;;;;;;33.10;21.00;;;;;;;-0.85;100.00;101136.59;1457660;88;21984;-80
2023/11/23 07:29:00;;;;;;;33.43;20.40;;;;;;;-0.80;100.00;101129.47;1452609;90;22583;-80
2023/11/23 07:31:26;;;;;;;32.17;20.03;;;;;;;-0.74;100.00;101124.03;1451366;90;21540;-80
2023/11/23 07:33:53;;;;;;;32.40;19.10;;;;;;;-0.69;100.00;101115.61;1450014;90;21530;-79
2023/11/23 07:36:21;;;;;;;43.33;24.37;;;;;;;-0.65;100.00;101108.54;1435426;90;21776;-80
2023/11/23 07:38:48;;;;;;;42.00;24.67;;;;;;;-0.62;100.00;101100.16;1452034;90;21490;-79
2023/11/23 07:41:14;;;;;;;51.17;30.40;;;;;;;-0.58;100.00;101092.62;1450336;89;21644;-80
2023/11/23 07:43:40;;;;;;;57.63;30.20;;;;;;;-0.52;100.00;101085.03;1452642;90;21617;-80
2023/11/23 07:46:09;;;;;;;40.13;22.07;;;;;;;-0.48;100.00;101081.42;1461199;90;21576;-80
2023/11/23 07:48:35;;;;;;;52.07;27.00;;;;;;;-0.44;100.00;101088.64;1432469;90;21634;-79
2023/11/23 07:51:01;;;;;;;39.70;25.73;;;;;;;-0.41;100.00;101093.25;1425213;90;21694;-81
2023/11/23 07:53:30;;;;;;;34.40;20.50;;;;;;;-0.37;100.00;101091.41;1455170;90;21527;-79
2023/11/23 07:55:56;;;;;;;34.83;20.70;;;;;;;-0.32;100.00;101088.98;1452537;90;21694;-79
2023/11/23 07:58:23;;;;;;;29.07;19.10;;;;;;;-0.28;100.00;101086.66;1457158;90;22318;-79
2023/11/23 08:00:49;;;;;;;33.20;19.03;;;;;;;-0.21;100.00;101096.81;1448324;90;21733;-80
2023/11/23 08:03:16;;;;;;;32.83;19.00;;;;;;;-0.18;100.00;101096.23;1450899;90;21694;-78
2023/11/23 08:05:43;;;;;;;30.27;18.50;;;;;;;-0.12;100.00;101099.88;1433647;90;21627;-79
2023/11/23 08:08:10;;;;;;;31.23;16.70;;;;;;;-0.05;100.00;101086.18;1450560;90;21516;-79
2023/11/23 08:10:36;;;;;;;31.10;16.90;;;;;;;-0.05;100.00;101077.91;1450938;90;21688;-80
2023/11/23 08:13:02;;;;;;;29.27;18.70;;;;;;;0.01;100.00;101068.16;1449788;90;21755;-79
2023/11/23 08:15:28;;;;;;;35.50;17.80;;;;;;;0.03;100.00;101061.98;1452198;90;21495;-80
2023/11/23 08:17:54;;;;;;;33.73;19.57;;;;;;;0.04;100.00;101059.77;1450085;89;23084;-80
2023/11/23 08:20:23;;;;;;;34.97;18.37;;;;;;;0.10;100.00;101057.36;1453561;90;21535;-78
2023/11/23 08:22:49;;;;;;;26.07;17.50;;;;;;;0.09;100.00;101051.31;1452556;89;21768;-79
2023/11/23 08:25:15;;;;;;;29.67;18.17;;;;;;;0.09;100.00;101046.56;1457231;88;21784;-79
2023/11/23 08:27:41;;;;;;;30.80;17.90;;;;;;;0.08;100.00;101041.79;1470782;88;21308;-78
2023/11/23 08:30:10;;;;;;;28.77;15.87;;;;;;;0.12;100.00;101032.12;1472589;88;21732;-78
2023/11/23 08:32:36;;;;;;;26.07;15.07;;;;;;;0.21;100.00;101023.91;1455519;88;22263;-79
2023/11/23 08:35:03;;;;;;;24.00;14.07;;;;;;;0.27;100.00;101021.03;1474016;88;21731;-79
2023/11/23 08:37:30;;;;;;;32.60;17.03;;;;;;;0.32;100.00;101020.84;1473867;88;23105;-78
2023/11/23 08:39:56;;;;;;;28.50;16.20;;;;;;;0.40;100.00;101024.80;1471758;88;22351;-78
2023/11/23 08:42:22;;;;;;;23.50;15.60;;;;;;;0.45;100.00;101028.02;1476907;88;21650;-78
2023/11/23 08:44:49;;;;;;;24.13;13.43;;;;;;;0.57;100.00;101029.22;1476201;88;21649;-78
2023/11/23 08:47:15;;;;;;;35.73;19.60;;;;;;;0.65;100.00;101022.38;1477580;88;21678;-78
2023/11/23 08:49:41;;;;;;;29.63;17.57;;;;;;;0.87;100.00;101017.88;1477525;88;21827;-78
2023/11/23 08:52:08;;;;;;;27.53;14.73;;;;;;;0.87;100.00;101017.88;1474606;88;21729;-79
2023/11/23 08:54:34;;;;;;;22.30;13.03;;;;;;;0.94;100.00;101001.95;1477331;88;22740;-79
2023/11/23 08:57:01;;;;;;;25.03;14.67;;;;;;;1.07;100.00;101000.00;1478702;88;21929;-77
2023/11/23 08:59:27;;;;;;;28.93;15.40;;;;;;;1.32;100.00;100999.67;1477184;88;21721;-78
2023/11/23 09:01:53;;;;;;;38.67;15.80;;;;;;;1.65;100.00;100975.44;1472226;88;21999;-78
2023/11/23 09:04:20;;;;;;;25.73;15.07;;;;;;;1.77;100.00;100966.98;1460127;88;21934;-79
2023/11/23 09:06:46;;;;;;;24.80;13.80;;;;;;;1.77;100.00;100966.98;1470380;88;21913;-78
2023/11/23 09:09:13;;;;;;;27.07;14.43;;;;;;;1.83;100.00;100968.91;1472314;88;22151;-79
2023/11/23 09:11:39;;;;;;;25.70;15.07;;;;;;;1.90;100.00;100966.34;1471895;88;23001;-78
2023/11/23 09:14:05;;;;;;;20.97;13.10;;;;;;;1.94;100.00;100956.15;1457039;88;23067;-77
2023/11/23 09:16:31;;;;;;;27.13;15.43;;;;;;;2.08;100.00;100960.19;1467449;88;22201;-77
2023/11/23 09:18:57;;;;;;;21.43;13.40;;;;;;;2.20;100.00;100956.92;1473606;88;23087;-80
2023/11/23 09:21:24;;;;;;;20.33;12.27;;;;;;;2.28;100.00;100960.92;1479831;88;22168;-77
2023/11/23 09:23:50;;;;;;;23.40;14.57;;;;;;;2.67;100.00;100967.89;1471597;88;22105;-78
2023/11/23 09:26:18;;;;;;;25.30;15.50;;;;;;;2.67;100.00;100967.89;1478483;88;22365;-78
2023/11/23 09:28:44;;;;;;;25.93;15.53;;;;;;;2.64;100.00;100960.22;1485502;88;22446;-79
2023/11/23 09:31:13;;;;;;;25.73;16.20;;;;;;;2.97;100.00;100960.61;1482505;88;21373;-76
2023/11/23 09:33:39;;;;;;;21.23;14.20;;;;;;;2.99;100.00;100951.35;1475899;88;22545;-79
2023/11/23 09:36:06;;;;;;;24.43;15.13;;;;;;;3.19;100.00;100951.53;1486419;88;21426;-80
2023/11/23 09:38:35;;;;;;;25.30;16.40;;;;;;;3.01;100.00;100942.97;1477849;88;21286;-79
2023/11/23 09:41:02;;;;;;;22.77;14.07;;;;;;;2.87;100.00;100938.50;1483637;88;21434;-80
2023/11/23 09:43:32;;;;;;;26.40;16.00;;;;;;;2.64;100.00;100936.70;1480864;88;22057;-78
2023/11/23 09:46:00;;;;;;;25.73;16.87;;;;;;;2.46;100.00;100930.71;1475163;88;21567;-77
2023/11/23 09:48:29;;;;;;;34.67;20.17;;;;;;;2.35;100.00;100925.69;1477610;88;21545;-77
2023/11/23 09:50:56;;;;;;;23.80;15.50;;;;;;;2.35;100.00;100925.69;1475607;88;21487;-78
2023/11/23 09:53:23;;;;;;;27.87;16.20;;;;;;;2.20;100.00;100945.17;1481333;88;21374;-79
2023/11/23 09:55:52;;;;;;;23.53;16.37;;;;;;;2.07;100.00;100929.77;1479877;88;21440;-78
2023/11/23 09:58:18;;;;;;;22.83;15.57;;;;;;;2.06;100.00;100937.69;1474738;88;22402;-77
2023/11/23 10:00:44;;;;;;;25.93;16.80;;;;;;;1.97;100.00;100939.02;1473062;88;23216;-77
2023/11/23 10:03:13;;;;;;;28.63;15.53;;;;;;;1.89;100.00;100924.21;1482402;88;22112;-78
2023/11/23 10:05:42;;;;;;;26.57;16.90;;;;;;;1.76;100.00;100922.71;1400253;88;21941;-79
2023/11/23 10:08:10;;;;;;;26.53;18.10;;;;;;;1.72;100.00;100918.55;1407468;88;22003;-78
2023/11/23 10:10:39;;;;;;;26.90;16.87;;;;;;;1.74;100.00;100914.95;1401714;88;22031;-79
2023/11/23 10:13:08;;;;;;;28.20;16.83;;;;;;;1.74;100.00;100905.81;1399959;88;22185;-78
2023/11/23 10:15:34;;;;;;;31.33;19.63;;;;;;;1.74;100.00;100902.36;1400255;88;23091;-77
2023/11/23 10:18:01;;;;;;;30.13;20.13;;;;;;;1.70;100.00;100903.45;1403706;88;21969;-79
2023/11/23 10:20:28;;;;;;;28.83;18.03;;;;;;;1.62;100.00;100918.19;1403381;88;21969;-78
2023/11/23 10:22:55;;;;;;;29.03;18.40;;;;;;;1.56;100.00;100920.66;1402916;88;22840;-78
2023/11/23 10:25:34;;;;;;;32.93;20.33;;;;;;;1.55;100.00;100905.06;1416973;88;22108;-78
2023/11/23 10:28:05;;;;;;;31.03;19.60;;;;;;;1.51;100.00;100899.16;1453454;89;23028;-79
2023/11/23 10:30:32;;;;;;;36.23;20.60;;;;;;;1.46;100.00;100908.14;1538408;89;22932;-77
2023/11/23 10:33:00;;;;;;;39.73;22.77;;;;;;;1.72;100.00;100875.03;1511566;89;21280;-79
2023/11/23 10:35:39;;;;;;;36.03;21.80;;;;;;;1.72;100.00;100875.03;1379844;89;22158;-78
2023/11/23 10:38:07;;;;;;;30.40;21.07;;;;;;;1.77;100.00;100863.89;1383541;89;22845;-78
2023/11/23 10:40:34;;;;;;;30.83;20.13;;;;;;;1.78;100.00;100872.56;1379608;89;21792;-79
2023/11/23 10:43:01;;;;;;;32.33;20.67;;;;;;;1.82;100.00;100874.57;1381184;89;22043;-78
2023/11/23 10:45:29;;;;;;;31.93;19.17;;;;;;;1.89;100.00;100878.53;1380873;89;22901;-77
2023/11/23 10:47:58;;;;;;;34.77;20.70;;;;;;;1.82;100.00;100870.19;1386416;89;22050;-79
2023/11/23 10:50:27;;;;;;;31.13;20.47;;;;;;;1.71;100.00;100843.81;1538282;89;21980;-78
2023/11/23 10:52:59;;;;;;;30.97;20.77;;;;;;;1.71;100.00;100843.81;1378028;89;21961;-78
2023/11/23 10:55:25;;;;;;;36.83;20.67;;;;;;;1.74;100.00;100838.42;1378446;89;22036;-79
2023/11/23 10:58:00;;;;;;;32.00;20.17;;;;;;;1.78;100.00;100840.80;1381844;89;22992;-78
2023/11/23 11:00:27;;;;;;;31.23;19.80;;;;;;;1.75;100.00;100840.09;1385345;89;23041;-78
2023/11/23 11:02:59;;;;;;;35.00;21.83;;;;;;;1.75;100.00;100840.09;1430271;89;22713;-79